sensor_id;sensor_type;location;lat;lon;timestamp;pressure;altitude;pressure_sealevel;temperature;humidity
35331;BME280;21441;52.190;20.910;2023-02-23T00:01:20;100653.97;;;-1.02;63.72
35331;BME280;21441;52.190;20.910;2023-02-23T00:03:48;100661.97;;;-0.89;63.80
35331;BME280;21441;52.190;20.910;2023-02-23T00:06:18;100661.81;;;-1.02;64.71
35331;BME280;21441;52.190;20.910;2023-02-23T00:08:45;100653.53;;;-1.10;64.25
35331;BME280;21441;52.190;20.910;2023-02-23T00:11:15;100643.16;;;-1.12;64.42
35331;BME280;21441;52.190;20.910;2023-02-23T00:13:44;100642.03;;;-1.08;64.13
35331;BME280;21441;52.190;20.910;2023-02-23T00:16:14;100641.97;;;-1.06;63.43
35331;BME280;21441;52.190;20.910;2023-02-23T00:18:43;100643.56;;;-1.04;63.67
35331;BME280;21441;52.190;20.910;2023-02-23T00:21:15;100632.09;;;-1.17;63.50
35331;BME280;21441;52.190;20.910;2023-02-23T00:23:47;100639.09;;;-1.01;63.64
35331;BME280;21441;52.190;20.910;2023-02-23T00:26:15;100645.16;;;-0.85;62.69
35331;BME280;21441;52.190;20.910;2023-02-23T00:28:46;100637.63;;;-0.91;62.16
35331;BME280;21441;52.190;20.910;2023-02-23T00:31:14;100627.91;;;-0.89;62.76
35331;BME280;21441;52.190;20.910;2023-02-23T00:33:42;100626.09;;;-1.03;63.76
35331;BME280;21441;52.190;20.910;2023-02-23T00:36:11;100623.38;;;-1.01;63.36
35331;BME280;21441;52.190;20.910;2023-02-23T00:38:40;100630.47;;;-1.04;64.69
35331;BME280;21441;52.190;20.910;2023-02-23T00:41:13;100626.03;;;-1.17;65.34
35331;BME280;21441;52.190;20.910;2023-02-23T00:43:42;100630.66;;;-1.07;65.50
35331;BME280;21441;52.190;20.910;2023-02-23T00:46:12;100630.38;;;-1.02;65.53
35331;BME280;21441;52.190;20.910;2023-02-23T00:48:41;100623.31;;;-1.16;66.04
35331;BME280;21441;52.190;20.910;2023-02-23T00:51:10;100620.59;;;-1.14;66.73
35331;BME280;21441;52.190;20.910;2023-02-23T00:53:37;100611.91;;;-1.15;66.40
35331;BME280;21441;52.190;20.910;2023-02-23T00:56:06;100614.03;;;-1.21;67.04
35331;BME280;21441;52.190;20.910;2023-02-23T00:58:36;100613.75;;;-1.17;67.70
35331;BME280;21441;52.190;20.910;2023-02-23T01:01:05;100618.69;;;-1.27;68.78
35331;BME280;21441;52.190;20.910;2023-02-23T01:03:33;100613.88;;;-1.34;70.08
35331;BME280;21441;52.190;20.910;2023-02-23T01:06:03;100608.25;;;-1.42;70.00
35331;BME280;21441;52.190;20.910;2023-02-23T01:08:32;100611.69;;;-1.42;70.76
35331;BME280;21441;52.190;20.910;2023-02-23T01:11:04;100606.38;;;-1.40;70.44
35331;BME280;21441;52.190;20.910;2023-02-23T01:13:32;100612.19;;;-1.35;71.26
35331;BME280;21441;52.190;20.910;2023-02-23T01:16:03;100608.06;;;-1.39;71.69
35331;BME280;21441;52.190;20.910;2023-02-23T01:18:33;100613.53;;;-1.44;71.23
35331;BME280;21441;52.190;20.910;2023-02-23T01:21:00;100611.34;;;-1.36;71.98
35331;BME280;21441;52.190;20.910;2023-02-23T01:23:28;100613.28;;;-1.39;72.22
35331;BME280;21441;52.190;20.910;2023-02-23T01:25:55;100604.34;;;-1.51;72.38
35331;BME280;21441;52.190;20.910;2023-02-23T01:28:23;100608.56;;;-1.49;72.54
35331;BME280;21441;52.190;20.910;2023-02-23T01:30:50;100596.66;;;-1.38;72.50
35331;BME280;21441;52.190;20.910;2023-02-23T01:33:19;100607.31;;;-1.57;73.37
35331;BME280;21441;52.190;20.910;2023-02-23T01:35:56;100602.41;;;-1.48;73.94
35331;BME280;21441;52.190;20.910;2023-02-23T01:38:24;100607.28;;;-1.41;74.17
35331;BME280;21441;52.190;20.910;2023-02-23T01:40:51;100603.16;;;-1.46;74.07
35331;BME280;21441;52.190;20.910;2023-02-23T01:43:20;100595.16;;;-1.42;73.80
35331;BME280;21441;52.190;20.910;2023-02-23T01:45:54;100599.94;;;-1.35;74.77
35331;BME280;21441;52.190;20.910;2023-02-23T01:48:26;100594.28;;;-1.43;75.27
35331;BME280;21441;52.190;20.910;2023-02-23T01:50:57;100600.28;;;-1.41;75.55
35331;BME280;21441;52.190;20.910;2023-02-23T01:53:29;100588.91;;;-1.56;77.02
35331;BME280;21441;52.190;20.910;2023-02-23T01:56:04;100577.19;;;-1.64;77.52
35331;BME280;21441;52.190;20.910;2023-02-23T01:58:37;100592.34;;;-1.39;77.08
35331;BME280;21441;52.190;20.910;2023-02-23T02:01:06;100590.59;;;-1.55;77.98
35331;BME280;21441;52.190;20.910;2023-02-23T02:03:37;100561.81;;;-1.71;78.66
35331;BME280;21441;52.190;20.910;2023-02-23T02:06:08;100568.91;;;-1.57;78.82
35331;BME280;21441;52.190;20.910;2023-02-23T02:08:42;100590.59;;;-1.55;79.89
35331;BME280;21441;52.190;20.910;2023-02-23T02:11:11;100576.25;;;-1.63;80.07
35331;BME280;21441;52.190;20.910;2023-02-23T02:13:52;100581.28;;;-1.60;81.57
35331;BME280;21441;52.190;20.910;2023-02-23T02:22:40;100585.53;;;-1.58;82.58
35331;BME280;21441;52.190;20.910;2023-02-23T02:25:26;100579.81;;;-1.64;84.40
35331;BME280;21441;52.190;20.910;2023-02-23T02:31:51;100589.81;;;-1.57;86.65
35331;BME280;21441;52.190;20.910;2023-02-23T02:35:01;100586.19;;;-1.70;88.20
35331;BME280;21441;52.190;20.910;2023-02-23T02:37:44;100578.44;;;-1.72;89.38
35331;BME280;21441;52.190;20.910;2023-02-23T02:40:20;100575.41;;;-1.80;91.50
35331;BME280;21441;52.190;20.910;2023-02-23T02:43:05;100580.63;;;-1.64;91.45
35331;BME280;21441;52.190;20.910;2023-02-23T02:45:41;100582.56;;;-1.52;91.64
35331;BME280;21441;52.190;20.910;2023-02-23T02:48:16;100575.72;;;-1.54;92.83
35331;BME280;21441;52.190;20.910;2023-02-23T02:50:48;100583.56;;;-1.54;94.42
35331;BME280;21441;52.190;20.910;2023-02-23T02:53:26;100578.84;;;-1.48;94.79
35331;BME280;21441;52.190;20.910;2023-02-23T02:55:56;100570.25;;;-1.34;94.03
35331;BME280;21441;52.190;20.910;2023-02-23T02:58:26;100570.06;;;-1.31;93.68
35331;BME280;21441;52.190;20.910;2023-02-23T03:00:53;100580.25;;;-1.26;94.92
35331;BME280;21441;52.190;20.910;2023-02-23T03:03:41;100585.41;;;-1.25;95.55
35331;BME280;21441;52.190;20.910;2023-02-23T03:06:29;100582.56;;;-1.36;97.69
35331;BME280;21441;52.190;20.910;2023-02-23T03:09:28;100569.94;;;-1.13;97.99
35331;BME280;21441;52.190;20.910;2023-02-23T03:12:26;100578.19;;;-1.05;96.30
35331;BME280;21441;52.190;20.910;2023-02-23T03:15:28;100579.31;;;-1.09;96.59
35331;BME280;21441;52.190;20.910;2023-02-23T03:18:34;100577.63;;;-1.26;99.90
35331;BME280;21441;52.190;20.910;2023-02-23T03:21:25;100577.22;;;-1.18;100.00
35331;BME280;21441;52.190;20.910;2023-02-23T03:24:20;100578.06;;;-1.18;100.00
35331;BME280;21441;52.190;20.910;2023-02-23T03:27:17;100575.84;;;-1.10;100.00
35331;BME280;21441;52.190;20.910;2023-02-23T03:30:11;100577.81;;;-0.99;100.00
35331;BME280;21441;52.190;20.910;2023-02-23T03:33:00;100576.72;;;-0.95;100.00
35331;BME280;21441;52.190;20.910;2023-02-23T03:35:51;100564.91;;;-1.02;100.00
35331;BME280;21441;52.190;20.910;2023-02-23T03:38:43;100570.38;;;-0.91;100.00
35331;BME280;21441;52.190;20.910;2023-02-23T03:41:30;100578.41;;;-0.94;100.00
35331;BME280;21441;52.190;20.910;2023-02-23T03:44:22;100578.56;;;-0.81;100.00
35331;BME280;21441;52.190;20.910;2023-02-23T03:47:11;100581.53;;;-0.73;100.00
35331;BME280;21441;52.190;20.910;2023-02-23T03:50:00;100575.53;;;-0.75;100.00
35331;BME280;21441;52.190;20.910;2023-02-23T03:52:50;100576.91;;;-0.53;100.00
35331;BME280;21441;52.190;20.910;2023-02-23T03:55:40;100564.06;;;-0.58;100.00
35331;BME280;21441;52.190;20.910;2023-02-23T03:58:29;100582.66;;;-0.77;100.00
35331;BME280;21441;52.190;20.910;2023-02-23T04:01:18;100565.38;;;-0.65;100.00
35331;BME280;21441;52.190;20.910;2023-02-23T04:04:07;100586.97;;;-0.62;100.00
35331;BME280;21441;52.190;20.910;2023-02-23T04:06:55;100570.78;;;-0.68;100.00
35331;BME280;21441;52.190;20.910;2023-02-23T04:09:41;100582.84;;;-0.80;100.00
35331;BME280;21441;52.190;20.910;2023-02-23T04:12:30;100575.19;;;-0.83;100.00
35331;BME280;21441;52.190;20.910;2023-02-23T04:15:22;100575.81;;;-0.94;100.00
35331;BME280;21441;52.190;20.910;2023-02-23T04:17:53;100578.31;;;-0.92;100.00
35331;BME280;21441;52.190;20.910;2023-02-23T04:20:21;100576.72;;;-0.95;100.00
35331;BME280;21441;52.190;20.910;2023-02-23T04:22:48;100573.19;;;-0.79;100.00
35331;BME280;21441;52.190;20.910;2023-02-23T04:25:17;100571.31;;;-0.92;100.00
35331;BME280;21441;52.190;20.910;2023-02-23T04:27:47;100565.44;;;-0.81;100.00
35331;BME280;21441;52.190;20.910;2023-02-23T04:30:15;100570.31;;;-0.75;100.00
35331;BME280;21441;52.190;20.910;2023-02-23T04:32:43;100567.13;;;-0.80;100.00
35331;BME280;21441;52.190;20.910;2023-02-23T04:35:12;100565.06;;;-0.75;100.00
35331;BME280;21441;52.190;20.910;2023-02-23T04:37:40;100566.28;;;-0.80;100.00
35331;BME280;21441;52.190;20.910;2023-02-23T04:40:08;100564.97;;;-0.88;100.00
35331;BME280;21441;52.190;20.910;2023-02-23T04:42:37;100560.72;;;-0.90;100.00
35331;BME280;21441;52.190;20.910;2023-02-23T04:45:06;100559.75;;;-0.73;100.00
35331;BME280;21441;52.190;20.910;2023-02-23T04:47:34;100561.25;;;-0.69;100.00
35331;BME280;21441;52.190;20.910;2023-02-23T04:50:01;100560.50;;;-0.71;100.00
35331;BME280;21441;52.190;20.910;2023-02-23T04:52:30;100547.69;;;-1.06;100.00
35331;BME280;21441;52.190;20.910;2023-02-23T04:55:00;100561.94;;;-0.96;100.00
35331;BME280;21441;52.190;20.910;2023-02-23T04:57:27;100548.38;;;-1.02;100.00
35331;BME280;21441;52.190;20.910;2023-02-23T04:59:56;100559.53;;;-0.85;100.00
35331;BME280;21441;52.190;20.910;2023-02-23T05:02:23;100551.75;;;-0.86;100.00
35331;BME280;21441;52.190;20.910;2023-02-23T05:04:51;100553.19;;;-0.80;100.00
35331;BME280;21441;52.190;20.910;2023-02-23T05:07:18;100561.81;;;-0.78;100.00
35331;BME280;21441;52.190;20.910;2023-02-23T05:09:50;100552.78;;;-1.03;100.00
35331;BME280;21441;52.190;20.910;2023-02-23T05:12:17;100561.38;;;-1.01;100.00
35331;BME280;21441;52.190;20.910;2023-02-23T05:14:45;100559.38;;;-1.12;100.00
35331;BME280;21441;52.190;20.910;2023-02-23T05:17:12;100551.19;;;-0.91;100.00
35331;BME280;21441;52.190;20.910;2023-02-23T05:19:40;100558.22;;;-0.92;100.00
35331;BME280;21441;52.190;20.910;2023-02-23T05:22:07;100556.56;;;-0.78;100.00
35331;BME280;21441;52.190;20.910;2023-02-23T05:24:37;100554.38;;;-0.86;100.00
35331;BME280;21441;52.190;20.910;2023-02-23T05:27:07;100556.09;;;-0.85;100.00
35331;BME280;21441;52.190;20.910;2023-02-23T05:29:35;100551.94;;;-0.89;100.00
35331;BME280;21441;52.190;20.910;2023-02-23T05:32:02;100520.94;;;-1.11;100.00
35331;BME280;21441;52.190;20.910;2023-02-23T05:34:30;100546.72;;;-0.89;100.00
35331;BME280;21441;52.190;20.910;2023-02-23T05:36:57;100541.31;;;-1.16;100.00
35331;BME280;21441;52.190;20.910;2023-02-23T05:39:25;100538.91;;;-1.05;100.00
35331;BME280;21441;52.190;20.910;2023-02-23T05:41:52;100549.88;;;-0.98;100.00
35331;BME280;21441;52.190;20.910;2023-02-23T05:44:21;100550.63;;;-0.96;100.00
35331;BME280;21441;52.190;20.910;2023-02-23T05:46:49;100563.19;;;-0.87;100.00
35331;BME280;21441;52.190;20.910;2023-02-23T05:49:16;100559.13;;;-0.93;100.00
35331;BME280;21441;52.190;20.910;2023-02-23T05:51:43;100552.56;;;-1.00;100.00
35331;BME280;21441;52.190;20.910;2023-02-23T05:54:11;100545.56;;;-0.99;100.00
35331;BME280;21441;52.190;20.910;2023-02-23T05:56:38;100548.28;;;-1.01;100.00
35331;BME280;21441;52.190;20.910;2023-02-23T05:59:06;100548.63;;;-1.07;100.00
35331;BME280;21441;52.190;20.910;2023-02-23T06:01:34;100564.56;;;-0.96;100.00
35331;BME280;21441;52.190;20.910;2023-02-23T06:04:02;100565.25;;;-0.78;100.00
35331;BME280;21441;52.190;20.910;2023-02-23T06:06:29;100566.22;;;-0.79;100.00
35331;BME280;21441;52.190;20.910;2023-02-23T06:08:57;100555.25;;;-0.86;100.00
35331;BME280;21441;52.190;20.910;2023-02-23T06:11:24;100563.25;;;-1.03;100.00
35331;BME280;21441;52.190;20.910;2023-02-23T06:13:52;100568.09;;;-0.97;100.00
35331;BME280;21441;52.190;20.910;2023-02-23T06:16:19;100568.44;;;-0.87;100.00
35331;BME280;21441;52.190;20.910;2023-02-23T06:18:48;100567.88;;;-0.78;100.00
35331;BME280;21441;52.190;20.910;2023-02-23T06:21:16;100562.34;;;-0.88;100.00
35331;BME280;21441;52.190;20.910;2023-02-23T06:23:43;100564.31;;;-0.77;100.00
35331;BME280;21441;52.190;20.910;2023-02-23T06:26:10;100562.84;;;-0.67;100.00
35331;BME280;21441;52.190;20.910;2023-02-23T06:28:38;100567.44;;;-0.70;100.00
35331;BME280;21441;52.190;20.910;2023-02-23T06:31:05;100566.13;;;-0.63;100.00
35331;BME280;21441;52.190;20.910;2023-02-23T06:33:33;100568.75;;;-0.63;100.00
35331;BME280;21441;52.190;20.910;2023-02-23T06:36:01;100577.25;;;-0.59;100.00
35331;BME280;21441;52.190;20.910;2023-02-23T06:38:29;100570.53;;;-0.49;100.00
35331;BME280;21441;52.190;20.910;2023-02-23T06:40:56;100563.44;;;-0.47;100.00
35331;BME280;21441;52.190;20.910;2023-02-23T06:43:24;100578.78;;;-0.41;100.00
35331;BME280;21441;52.190;20.910;2023-02-23T06:45:51;100572.31;;;-0.35;100.00
35331;BME280;21441;52.190;20.910;2023-02-23T06:48:19;100571.38;;;-0.49;100.00
35331;BME280;21441;52.190;20.910;2023-02-23T06:50:46;100570.44;;;-0.33;100.00
35331;BME280;21441;52.190;20.910;2023-02-23T06:53:15;100570.09;;;-0.27;100.00
35331;BME280;21441;52.190;20.910;2023-02-23T06:55:43;100566.63;;;-0.28;100.00
35331;BME280;21441;52.190;20.910;2023-02-23T06:58:10;100581.88;;;-0.20;100.00
35331;BME280;21441;52.190;20.910;2023-02-23T07:00:38;100565.88;;;-0.30;100.00
35331;BME280;21441;52.190;20.910;2023-02-23T07:03:08;100578.44;;;-0.06;100.00
35331;BME280;21441;52.190;20.910;2023-02-23T07:05:36;100544.78;;;0.01;100.00
35331;BME280;21441;52.190;20.910;2023-02-23T07:08:04;100582.69;;;0.24;100.00
35331;BME280;21441;52.190;20.910;2023-02-23T07:10:32;100574.94;;;0.22;100.00
35331;BME280;21441;52.190;20.910;2023-02-23T07:13:00;100577.03;;;0.44;100.00
35331;BME280;21441;52.190;20.910;2023-02-23T07:15:28;100579.88;;;0.27;100.00
35331;BME280;21441;52.190;20.910;2023-02-23T07:17:55;100572.47;;;0.19;100.00
35331;BME280;21441;52.190;20.910;2023-02-23T07:20:23;100569.22;;;0.15;100.00
35331;BME280;21441;52.190;20.910;2023-02-23T07:22:50;100562.00;;;0.19;100.00
35331;BME280;21441;52.190;20.910;2023-02-23T07:25:19;100567.91;;;0.23;100.00
35331;BME280;21441;52.190;20.910;2023-02-23T07:27:48;100570.22;;;0.27;100.00
35331;BME280;21441;52.190;20.910;2023-02-23T07:30:16;100569.19;;;0.57;100.00
35331;BME280;21441;52.190;20.910;2023-02-23T07:32:44;100557.22;;;0.53;100.00
35331;BME280;21441;52.190;20.910;2023-02-23T07:35:11;100560.19;;;0.61;100.00
35331;BME280;21441;52.190;20.910;2023-02-23T07:37:39;100559.34;;;0.60;100.00
35331;BME280;21441;52.190;20.910;2023-02-23T07:40:08;100558.03;;;0.80;100.00
35331;BME280;21441;52.190;20.910;2023-02-23T07:42:35;100562.84;;;0.74;100.00
35331;BME280;21441;52.190;20.910;2023-02-23T07:45:06;100550.47;;;0.76;100.00
35331;BME280;21441;52.190;20.910;2023-02-23T07:47:34;100549.63;;;0.75;100.00
35331;BME280;21441;52.190;20.910;2023-02-23T07:50:03;100558.56;;;0.86;100.00
35331;BME280;21441;52.190;20.910;2023-02-23T07:52:36;100548.44;;;1.07;100.00
35331;BME280;21441;52.190;20.910;2023-02-23T07:55:04;100543.94;;;1.09;100.00
35331;BME280;21441;52.190;20.910;2023-02-23T07:57:32;100540.59;;;1.19;100.00
35331;BME280;21441;52.190;20.910;2023-02-23T07:59:59;100536.81;;;1.23;100.00
35331;BME280;21441;52.190;20.910;2023-02-23T08:02:28;100542.16;;;1.22;100.00
35331;BME280;21441;52.190;20.910;2023-02-23T08:04:57;100533.44;;;1.21;100.00
35331;BME280;21441;52.190;20.910;2023-02-23T08:07:25;100529.75;;;1.24;100.00
35331;BME280;21441;52.190;20.910;2023-02-23T08:09:52;100515.78;;;1.36;100.00
35331;BME280;21441;52.190;20.910;2023-02-23T08:12:20;100532.31;;;1.38;100.00
35331;BME280;21441;52.190;20.910;2023-02-23T08:14:47;100523.34;;;1.15;100.00
35331;BME280;21441;52.190;20.910;2023-02-23T08:17:14;100518.28;;;1.25;100.00
35331;BME280;21441;52.190;20.910;2023-02-23T08:19:43;100521.47;;;1.43;100.00
35331;BME280;21441;52.190;20.910;2023-02-23T08:22:11;100510.72;;;1.20;100.00
35331;BME280;21441;52.190;20.910;2023-02-23T08:24:38;100511.69;;;1.32;100.00
35331;BME280;21441;52.190;20.910;2023-02-23T08:27:06;100500.75;;;1.38;100.00
35331;BME280;21441;52.190;20.910;2023-02-23T08:29:33;100515.00;;;1.60;100.00
35331;BME280;21441;52.190;20.910;2023-02-23T08:32:01;100516.72;;;1.74;100.00
35331;BME280;21441;52.190;20.910;2023-02-23T08:34:28;100522.03;;;1.85;100.00
35331;BME280;21441;52.190;20.910;2023-02-23T08:36:58;100513.00;;;1.89;98.49
35331;BME280;21441;52.190;20.910;2023-02-23T08:39:25;100498.19;;;2.12;96.88
35331;BME280;21441;52.190;20.910;2023-02-23T08:41:53;100495.66;;;2.35;92.83
35331;BME280;21441;52.190;20.910;2023-02-23T08:44:20;100497.91;;;2.52;90.88
35331;BME280;21441;52.190;20.910;2023-02-23T08:46:48;100501.88;;;2.10;91.30
35331;BME280;21441;52.190;20.910;2023-02-23T08:49:15;100509.31;;;1.92;93.65
35331;BME280;21441;52.190;20.910;2023-02-23T08:51:43;100496.56;;;2.22;94.67
35331;BME280;21441;52.190;20.910;2023-02-23T08:54:13;100480.03;;;2.20;92.25
35331;BME280;21441;52.190;20.910;2023-02-23T08:56:43;100501.53;;;2.14;91.66
35331;BME280;21441;52.190;20.910;2023-02-23T08:59:11;100494.94;;;2.33;91.80
35331;BME280;21441;52.190;20.910;2023-02-23T09:01:41;100485.72;;;2.27;89.69
35331;BME280;21441;52.190;20.910;2023-02-23T09:04:09;100492.44;;;2.31;89.58
35331;BME280;21441;52.190;20.910;2023-02-23T09:06:36;100461.28;;;2.25;87.72
35331;BME280;21441;52.190;20.910;2023-02-23T09:09:04;100474.19;;;2.52;87.82
35331;BME280;21441;52.190;20.910;2023-02-23T09:11:33;100485.94;;;2.83;86.31
35331;BME280;21441;52.190;20.910;2023-02-23T09:14:00;100487.91;;;3.04;82.78
35331;BME280;21441;52.190;20.910;2023-02-23T09:16:28;100468.47;;;2.94;83.85
35331;BME280;21441;52.190;20.910;2023-02-23T09:18:55;100482.31;;;3.42;80.19
35331;BME280;21441;52.190;20.910;2023-02-23T09:21:24;100479.06;;;3.16;82.26
35331;BME280;21441;52.190;20.910;2023-02-23T09:23:54;100477.19;;;3.41;78.06
35331;BME280;21441;52.190;20.910;2023-02-23T09:26:22;100486.50;;;3.34;78.17
35331;BME280;21441;52.190;20.910;2023-02-23T09:28:52;100475.09;;;3.10;80.68
35331;BME280;21441;52.190;20.910;2023-02-23T09:31:22;100469.25;;;3.29;80.04
35331;BME280;21441;52.190;20.910;2023-02-23T09:33:50;100456.66;;;3.78;75.98
35331;BME280;21441;52.190;20.910;2023-02-23T09:36:19;100455.53;;;4.03;74.29
35331;BME280;21441;52.190;20.910;2023-02-23T09:38:50;100457.91;;;4.18;73.82
35331;BME280;21441;52.190;20.910;2023-02-23T09:44:36;100441.41;;;5.00;66.33
35331;BME280;21441;52.190;20.910;2023-02-23T09:47:17;100447.03;;;5.37;63.58
35331;BME280;21441;52.190;20.910;2023-02-23T09:49:48;100442.69;;;4.42;65.17
35331;BME280;21441;52.190;20.910;2023-02-23T09:52:20;100439.25;;;4.19;70.51
35331;BME280;21441;52.190;20.910;2023-02-23T09:54:49;100435.09;;;4.91;65.93
35331;BME280;21441;52.190;20.910;2023-02-23T09:57:21;100437.75;;;5.12;63.50
35331;BME280;21441;52.190;20.910;2023-02-23T09:59:52;100447.16;;;5.35;61.79
35331;BME280;21441;52.190;20.910;2023-02-23T10:02:22;100434.03;;;5.24;61.54
35331;BME280;21441;52.190;20.910;2023-02-23T10:04:54;100429.66;;;5.44;60.44
35331;BME280;21441;52.190;20.910;2023-02-23T10:07:29;100425.25;;;6.05;59.68
35331;BME280;21441;52.190;20.910;2023-02-23T10:10:09;100406.63;;;7.95;53.46
35331;BME280;21441;52.190;20.910;2023-02-23T10:12:44;100405.41;;;9.31;50.25
35331;BME280;21441;52.190;20.910;2023-02-23T10:15:25;100403.56;;;9.32;48.73
35331;BME280;21441;52.190;20.910;2023-02-23T10:17:59;100399.59;;;9.36;48.56
35331;BME280;21441;52.190;20.910;2023-02-23T10:20:35;100383.03;;;9.58;48.05
35331;BME280;21441;52.190;20.910;2023-02-23T10:23:08;100385.63;;;9.93;47.31
35331;BME280;21441;52.190;20.910;2023-02-23T10:25:42;100389.81;;;9.95;47.66
35331;BME280;21441;52.190;20.910;2023-02-23T10:28:12;100382.22;;;10.33;45.87
35331;BME280;21441;52.190;20.910;2023-02-23T10:30:43;100383.97;;;9.91;47.74
35331;BME280;21441;52.190;20.910;2023-02-23T10:33:12;100382.28;;;9.99;46.45
35331;BME280;21441;52.190;20.910;2023-02-23T10:35:42;100363.25;;;11.17;44.15
35331;BME280;21441;52.190;20.910;2023-02-23T10:38:14;100364.59;;;9.81;46.20
35331;BME280;21441;52.190;20.910;2023-02-23T10:40:42;100376.47;;;9.36;46.98
35331;BME280;21441;52.190;20.910;2023-02-23T10:43:12;100364.56;;;10.32;45.75
35331;BME280;21441;52.190;20.910;2023-02-23T10:45:45;100345.94;;;9.81;46.49
35331;BME280;21441;52.190;20.910;2023-02-23T10:48:17;100342.28;;;10.89;45.14
35331;BME280;21441;52.190;20.910;2023-02-23T10:50:46;100327.19;;;11.91;42.60
35331;BME280;21441;52.190;20.910;2023-02-23T10:53:20;100325.97;;;11.94;42.35
35331;BME280;21441;52.190;20.910;2023-02-23T10:56:00;100312.97;;;14.98;37.41
35331;BME280;21441;52.190;20.910;2023-02-23T10:58:30;100310.19;;;14.29;37.79
35331;BME280;21441;52.190;20.910;2023-02-23T11:01:00;100315.88;;;13.25;39.54
35331;BME280;21441;52.190;20.910;2023-02-23T11:03:31;100292.97;;;13.95;38.96
35331;BME280;21441;52.190;20.910;2023-02-23T11:05:59;100293.13;;;13.72;38.56
35331;BME280;21441;52.190;20.910;2023-02-23T11:08:29;100296.56;;;13.44;39.31
35331;BME280;21441;52.190;20.910;2023-02-23T11:13:46;100282.69;;;11.67;41.31
35331;BME280;21441;52.190;20.910;2023-02-23T11:16:18;100297.41;;;10.37;44.29
35331;BME280;21441;52.190;20.910;2023-02-23T11:18:50;100284.44;;;10.89;43.94
35331;BME280;21441;52.190;20.910;2023-02-23T11:21:23;100283.22;;;11.40;42.93
35331;BME280;21441;52.190;20.910;2023-02-23T11:23:53;100274.03;;;10.47;44.17
35331;BME280;21441;52.190;20.910;2023-02-23T11:26:28;100280.53;;;9.20;46.24
35331;BME280;21441;52.190;20.910;2023-02-23T11:28:59;100279.94;;;8.39;48.43
35331;BME280;21441;52.190;20.910;2023-02-23T11:31:33;100277.00;;;9.54;46.95
35331;BME280;21441;52.190;20.910;2023-02-23T11:34:02;100273.50;;;10.51;44.89
35331;BME280;21441;52.190;20.910;2023-02-23T11:36:32;100245.06;;;10.11;45.50
35331;BME280;21441;52.190;20.910;2023-02-23T11:39:04;100273.66;;;9.68;46.27
35331;BME280;21441;52.190;20.910;2023-02-23T11:41:33;100247.72;;;9.03;47.53
35331;BME280;21441;52.190;20.910;2023-02-23T11:44:02;100259.84;;;9.56;46.55
35331;BME280;21441;52.190;20.910;2023-02-23T11:46:34;100243.03;;;10.46;45.19
35331;BME280;21441;52.190;20.910;2023-02-23T11:49:05;100241.03;;;10.31;45.43
35331;BME280;21441;52.190;20.910;2023-02-23T11:51:35;100236.03;;;10.92;44.21
35331;BME280;21441;52.190;20.910;2023-02-23T11:54:04;100233.38;;;10.20;44.51
35331;BME280;21441;52.190;20.910;2023-02-23T11:56:35;100232.88;;;9.67;46.73
35331;BME280;21441;52.190;20.910;2023-02-23T11:59:05;100251.94;;;8.79;48.00
35331;BME280;21441;52.190;20.910;2023-02-23T12:01:39;100236.34;;;7.80;50.03
35331;BME280;21441;52.190;20.910;2023-02-23T12:04:23;100228.41;;;7.88;50.09
35331;BME280;21441;52.190;20.910;2023-02-23T12:06:51;100225.91;;;8.57;49.20
35331;BME280;21441;52.190;20.910;2023-02-23T12:09:23;100211.56;;;9.67;47.27
35331;BME280;21441;52.190;20.910;2023-02-23T12:11:57;100200.94;;;10.72;44.88
35331;BME280;21441;52.190;20.910;2023-02-23T12:14:31;100199.91;;;9.77;45.79
35331;BME280;21441;52.190;20.910;2023-02-23T12:17:05;100210.44;;;8.95;46.95
35331;BME280;21441;52.190;20.910;2023-02-23T12:19:38;100198.75;;;8.79;48.66
35331;BME280;21441;52.190;20.910;2023-02-23T12:22:10;100192.56;;;10.20;45.66
35331;BME280;21441;52.190;20.910;2023-02-23T12:24:43;100182.19;;;11.20;44.74
35331;BME280;21441;52.190;20.910;2023-02-23T12:27:14;100175.19;;;10.48;45.06
35331;BME280;21441;52.190;20.910;2023-02-23T12:30:01;100180.59;;;11.57;43.05
35331;BME280;21441;52.190;20.910;2023-02-23T12:32:42;100173.31;;;11.89;41.95
35331;BME280;21441;52.190;20.910;2023-02-23T12:35:14;100176.00;;;11.43;42.78
35331;BME280;21441;52.190;20.910;2023-02-23T12:37:47;100167.34;;;11.41;43.42
35331;BME280;21441;52.190;20.910;2023-02-23T12:40:20;100161.94;;;11.49;42.71
35331;BME280;21441;52.190;20.910;2023-02-23T12:42:59;100161.06;;;11.33;42.77
35331;BME280;21441;52.190;20.910;2023-02-23T12:45:36;100146.25;;;10.68;43.75
35331;BME280;21441;52.190;20.910;2023-02-23T12:48:13;100160.41;;;10.69;44.66
35331;BME280;21441;52.190;20.910;2023-02-23T12:50:50;100155.53;;;10.41;44.86
35331;BME280;21441;52.190;20.910;2023-02-23T12:53:21;100145.22;;;10.22;45.04
35331;BME280;21441;52.190;20.910;2023-02-23T12:56:08;100149.88;;;10.36;44.99
35331;BME280;21441;52.190;20.910;2023-02-23T12:58:41;100140.88;;;10.37;44.80
35331;BME280;21441;52.190;20.910;2023-02-23T13:01:15;100138.00;;;9.34;46.70
35331;BME280;21441;52.190;20.910;2023-02-23T13:04:03;100136.78;;;8.87;48.53
35331;BME280;21441;52.190;20.910;2023-02-23T13:06:35;100144.75;;;8.44;49.26
35331;BME280;21441;52.190;20.910;2023-02-23T13:09:15;100127.78;;;8.11;50.19
35331;BME280;21441;52.190;20.910;2023-02-23T13:11:50;100114.63;;;8.36;49.78
35331;BME280;21441;52.190;20.910;2023-02-23T13:14:25;100125.00;;;8.47;49.06
35331;BME280;21441;52.190;20.910;2023-02-23T13:16:58;100127.09;;;8.70;49.26
35331;BME280;21441;52.190;20.910;2023-02-23T13:19:33;100121.75;;;8.35;49.82
35331;BME280;21441;52.190;20.910;2023-02-23T13:22:15;100127.03;;;7.67;51.29